sensor_id;sensor_type;location;lat;lon;timestamp;temperature;humidity
57106;DHT22;62662;56.788;23.942;2022-10-04T00:01:43;10.70;99.90
57106;DHT22;62662;56.788;23.942;2022-10-04T00:06:56;10.70;99.90
57106;DHT22;62662;56.788;23.942;2022-10-04T00:12:19;10.70;99.90
57106;DHT22;62662;56.788;23.942;2022-10-04T00:14:47;10.70;99.90
57106;DHT22;62662;56.788;23.942;2022-10-04T00:17:22;10.70;99.90
57106;DHT22;62662;56.788;23.942;2022-10-04T00:19:50;10.70;99.90
57106;DHT22;62662;56.788;23.942;2022-10-04T00:22:23;10.70;99.90
57106;DHT22;62662;56.788;23.942;2022-10-04T00:25:19;10.70;99.90
57106;DHT22;62662;56.788;23.942;2022-10-04T00:49:52;10.70;99.90
57106;DHT22;62662;56.788;23.942;2022-10-04T00:52:25;10.60;99.90
57106;DHT22;62662;56.788;23.942;2022-10-04T00:54:58;10.70;99.90
57106;DHT22;62662;56.788;23.942;2022-10-04T00:57:30;10.70;99.90
57106;DHT22;62662;56.788;23.942;2022-10-04T01:00:15;10.70;99.90
57106;DHT22;62662;56.788;23.942;2022-10-04T01:02:57;10.70;99.90
57106;DHT22;62662;56.788;23.942;2022-10-04T01:05:39;10.70;99.90
57106;DHT22;62662;56.788;23.942;2022-10-04T01:08:13;10.70;99.90
57106;DHT22;62662;56.788;23.942;2022-10-04T01:10:49;10.80;99.90
57106;DHT22;62662;56.788;23.942;2022-10-04T01:16:00;10.70;99.90
57106;DHT22;62662;56.788;23.942;2022-10-04T01:18:31;10.70;99.90
57106;DHT22;62662;56.788;23.942;2022-10-04T01:23:52;10.60;99.90
57106;DHT22;62662;56.788;23.942;2022-10-04T01:28:56;10.50;99.90
57106;DHT22;62662;56.788;23.942;2022-10-04T01:31:27;10.50;99.90
57106;DHT22;62662;56.788;23.942;2022-10-04T01:33:55;10.40;99.90
57106;DHT22;62662;56.788;23.942;2022-10-04T01:36:23;10.40;99.90
57106;DHT22;62662;56.788;23.942;2022-10-04T01:38:50;10.50;99.90
57106;DHT22;62662;56.788;23.942;2022-10-04T01:41:21;10.50;99.90
57106;DHT22;62662;56.788;23.942;2022-10-04T01:43:55;10.50;99.90
57106;DHT22;62662;56.788;23.942;2022-10-04T01:46:33;10.40;99.90
57106;DHT22;62662;56.788;23.942;2022-10-04T01:49:06;10.40;99.90
57106;DHT22;62662;56.788;23.942;2022-10-04T01:51:42;10.50;99.90
57106;DHT22;62662;56.788;23.942;2022-10-04T01:54:16;10.40;99.90
57106;DHT22;62662;56.788;23.942;2022-10-04T01:59:27;10.40;99.90
57106;DHT22;62662;56.788;23.942;2022-10-04T02:02:10;10.40;99.90
57106;DHT22;62662;56.788;23.942;2022-10-04T02:04:42;10.50;99.90
57106;DHT22;62662;56.788;23.942;2022-10-04T02:07:14;10.50;99.90
57106;DHT22;62662;56.788;23.942;2022-10-04T02:09:44;10.50;99.90
57106;DHT22;62662;56.788;23.942;2022-10-04T02:12:16;10.50;99.90
57106;DHT22;62662;56.788;23.942;2022-10-04T02:14:50;10.40;99.90
57106;DHT22;62662;56.788;23.942;2022-10-04T02:17:26;10.50;99.90
57106;DHT22;62662;56.788;23.942;2022-10-04T02:19:54;10.40;99.90
57106;DHT22;62662;56.788;23.942;2022-10-04T02:22:23;10.40;99.90
57106;DHT22;62662;56.788;23.942;2022-10-04T02:24:53;10.40;99.90
57106;DHT22;62662;56.788;23.942;2022-10-04T02:27:26;10.50;99.90
57106;DHT22;62662;56.788;23.942;2022-10-04T02:30:02;10.40;99.90
57106;DHT22;62662;56.788;23.942;2022-10-04T02:32:33;10.50;99.90
57106;DHT22;62662;56.788;23.942;2022-10-04T02:35:18;10.40;99.90
57106;DHT22;62662;56.788;23.942;2022-10-04T02:37:54;10.40;99.90
57106;DHT22;62662;56.788;23.942;2022-10-04T02:40:31;10.40;99.90
57106;DHT22;62662;56.788;23.942;2022-10-04T02:43:16;10.40;99.90
57106;DHT22;62662;56.788;23.942;2022-10-04T02:45:58;10.50;99.90
57106;DHT22;62662;56.788;23.942;2022-10-04T02:48:47;10.40;99.90
57106;DHT22;62662;56.788;23.942;2022-10-04T02:56:38;10.30;99.90
57106;DHT22;62662;56.788;23.942;2022-10-04T02:59:06;10.40;99.90
57106;DHT22;62662;56.788;23.942;2022-10-04T03:01:52;10.40;99.90
57106;DHT22;62662;56.788;23.942;2022-10-04T03:04:39;10.40;99.90
57106;DHT22;62662;56.788;23.942;2022-10-04T03:07:07;10.30;99.90
57106;DHT22;62662;56.788;23.942;2022-10-04T03:09:37;10.30;99.90
57106;DHT22;62662;56.788;23.942;2022-10-04T03:12:09;10.30;99.90
57106;DHT22;62662;56.788;23.942;2022-10-04T03:14:38;10.20;99.90
57106;DHT22;62662;56.788;23.942;2022-10-04T03:17:06;10.20;99.90
57106;DHT22;62662;56.788;23.942;2022-10-04T03:19:34;10.10;99.90
57106;DHT22;62662;56.788;23.942;2022-10-04T03:22:11;10.10;99.90
57106;DHT22;62662;56.788;23.942;2022-10-04T03:24:48;10.10;99.90
57106;DHT22;62662;56.788;23.942;2022-10-04T03:27:21;10.20;99.90
57106;DHT22;62662;56.788;23.942;2022-10-04T03:29:51;9.40;99.90
57106;DHT22;62662;56.788;23.942;2022-10-04T03:32:24;10.20;99.90
57106;DHT22;62662;56.788;23.942;2022-10-04T03:34:58;10.20;99.90
57106;DHT22;62662;56.788;23.942;2022-10-04T03:37:27;10.20;99.90
57106;DHT22;62662;56.788;23.942;2022-10-04T03:39:55;10.20;99.90
57106;DHT22;62662;56.788;23.942;2022-10-04T03:42:29;10.10;99.90
57106;DHT22;62662;56.788;23.942;2022-10-04T03:45:00;10.20;99.90
57106;DHT22;62662;56.788;23.942;2022-10-04T03:47:36;10.20;99.90
57106;DHT22;62662;56.788;23.942;2022-10-04T03:52:40;10.20;99.90
57106;DHT22;62662;56.788;23.942;2022-10-04T03:55:10;10.20;99.90
57106;DHT22;62662;56.788;23.942;2022-10-04T03:57:40;10.30;99.90
57106;DHT22;62662;56.788;23.942;2022-10-04T04:00:07;10.30;99.90
57106;DHT22;62662;56.788;23.942;2022-10-04T04:05:34;10.30;99.90
57106;DHT22;62662;56.788;23.942;2022-10-04T04:10:42;10.30;99.90
57106;DHT22;62662;56.788;23.942;2022-10-04T04:15:49;10.40;99.90
57106;DHT22;62662;56.788;23.942;2022-10-04T04:18:22;10.40;99.90
57106;DHT22;62662;56.788;23.942;2022-10-04T04:20:51;10.40;99.90
57106;DHT22;62662;56.788;23.942;2022-10-04T04:23:47;10.40;99.90
57106;DHT22;62662;56.788;23.942;2022-10-04T04:26:36;10.40;99.90
57106;DHT22;62662;56.788;23.942;2022-10-04T04:31:55;10.40;99.90
57106;DHT22;62662;56.788;23.942;2022-10-04T04:34:33;10.40;99.90
57106;DHT22;62662;56.788;23.942;2022-10-04T04:37:04;10.40;99.90
57106;DHT22;62662;56.788;23.942;2022-10-04T04:39:58;10.50;99.90
57106;DHT22;62662;56.788;23.942;2022-10-04T04:42:36;10.40;99.90
57106;DHT22;62662;56.788;23.942;2022-10-04T04:45:21;10.40;99.90
57106;DHT22;62662;56.788;23.942;2022-10-04T04:47:53;10.50;99.90
57106;DHT22;62662;56.788;23.942;2022-10-04T04:50:25;10.50;99.90
57106;DHT22;62662;56.788;23.942;2022-10-04T04:55:41;10.50;99.90
57106;DHT22;62662;56.788;23.942;2022-10-04T04:58:36;10.50;99.90
57106;DHT22;62662;56.788;23.942;2022-10-04T05:06:42;10.50;99.90
57106;DHT22;62662;56.788;23.942;2022-10-04T05:14:56;10.50;99.90
57106;DHT22;62662;56.788;23.942;2022-10-04T05:17:25;10.50;99.90
57106;DHT22;62662;56.788;23.942;2022-10-04T05:19:57;10.50;99.90
57106;DHT22;62662;56.788;23.942;2022-10-04T05:22:26;10.50;99.90
57106;DHT22;62662;56.788;23.942;2022-10-04T05:25:05;10.50;99.90
57106;DHT22;62662;56.788;23.942;2022-10-04T05:27:41;10.60;99.90
57106;DHT22;62662;56.788;23.942;2022-10-04T05:30:20;10.50;99.90
57106;DHT22;62662;56.788;23.942;2022-10-04T05:35:29;10.50;99.90
57106;DHT22;62662;56.788;23.942;2022-10-04T05:38:33;10.50;99.90
57106;DHT22;62662;56.788;23.942;2022-10-04T05:41:29;10.60;99.90
57106;DHT22;62662;56.788;23.942;2022-10-04T05:48:12;10.10;99.90
57106;DHT22;62662;56.788;23.942;2022-10-04T06:18:29;10.80;99.90
57106;DHT22;62662;56.788;23.942;2022-10-04T06:23:34;10.70;99.90
57106;DHT22;62662;56.788;23.942;2022-10-04T06:26:24;10.80;99.90
57106;DHT22;62662;56.788;23.942;2022-10-04T06:29:04;10.80;99.90
57106;DHT22;62662;56.788;23.942;2022-10-04T06:36:13;10.80;99.90
57106;DHT22;62662;56.788;23.942;2022-10-04T07:06:01;11.00;99.90
57106;DHT22;62662;56.788;23.942;2022-10-04T07:08:46;11.00;99.90
57106;DHT22;62662;56.788;23.942;2022-10-04T07:15:46;11.00;99.90
57106;DHT22;62662;56.788;23.942;2022-10-04T07:31:47;10.90;99.90
57106;DHT22;62662;56.788;23.942;2022-10-04T08:03:29;10.90;99.90
57106;DHT22;62662;56.788;23.942;2022-10-04T08:05:53;12.90;99.90
57106;DHT22;62662;56.788;23.942;2022-10-04T09:16:44;11.80;99.90
57106;DHT22;62662;56.788;23.942;2022-10-04T09:33:37;12.00;99.90
57106;DHT22;62662;56.788;23.942;2022-10-04T09:39:34;12.10;99.90
57106;DHT22;62662;56.788;23.942;2022-10-04T10:05:46;12.80;99.90
57106;DHT22;62662;56.788;23.942;2022-10-04T10:12:46;12.90;99.90
57106;DHT22;62662;56.788;23.942;2022-10-04T10:38:12;13.60;99.90
57106;DHT22;62662;56.788;23.942;2022-10-04T11:06:13;16.50;99.90
57106;DHT22;62662;56.788;23.942;2022-10-04T11:09:33;16.90;99.90
57106;DHT22;62662;56.788;23.942;2022-10-04T11:44:23;18.30;99.10
57106;DHT22;62662;56.788;23.942;2022-10-04T11:50:50;18.50;99.30
57106;DHT22;62662;56.788;23.942;2022-10-04T11:53:28;18.60;98.70
57106;DHT22;62662;56.788;23.942;2022-10-04T12:11:33;17.60;99.10
57106;DHT22;62662;56.788;23.942;2022-10-04T12:23:19;18.30;98.20
57106;DHT22;62662;56.788;23.942;2022-10-04T12:26:18;17.50;99.20
57106;DHT22;62662;56.788;23.942;2022-10-04T12:31:41;17.30;99.40
57106;DHT22;62662;56.788;23.942;2022-10-04T12:37:19;17.90;98.80
57106;DHT22;62662;56.788;23.942;2022-10-04T12:56:13;17.10;99.90
57106;DHT22;62662;56.788;23.942;2022-10-04T13:04:41;16.60;99.90
57106;DHT22;62662;56.788;23.942;2022-10-04T13:07:34;16.30;99.90
57106;DHT22;62662;56.788;23.942;2022-10-04T13:13:16;15.80;99.90
57106;DHT22;62662;56.788;23.942;2022-10-04T13:27:17;13.70;99.90
57106;DHT22;62662;56.788;23.942;2022-10-04T13:30:00;13.70;99.90
57106;DHT22;62662;56.788;23.942;2022-10-04T13:49:28;13.30;99.90
57106;DHT22;62662;56.788;23.942;2022-10-04T13:55:25;13.30;99.90
57106;DHT22;62662;56.788;23.942;2022-10-04T14:07:04;13.20;99.90
57106;DHT22;62662;56.788;23.942;2022-10-04T14:35:00;12.80;99.90
57106;DHT22;62662;56.788;23.942;2022-10-04T14:44:14;12.60;99.90
57106;DHT22;62662;56.788;23.942;2022-10-04T15:01:04;12.20;99.90
57106;DHT22;62662;56.788;23.942;2022-10-04T15:09:08;12.10;99.90
57106;DHT22;62662;56.788;23.942;2022-10-04T15:11:55;12.10;99.90
57106;DHT22;62662;56.788;23.942;2022-10-04T15:20:21;11.90;99.90
57106;DHT22;62662;56.788;23.942;2022-10-04T15:25:59;11.90;99.90
57106;DHT22;62662;56.788;23.942;2022-10-04T15:28:39;11.80;99.90
57106;DHT22;62662;56.788;23.942;2022-10-04T15:42:13;11.60;99.90
57106;DHT22;62662;56.788;23.942;2022-10-04T15:50:31;11.40;99.90
57106;DHT22;62662;56.788;23.942;2022-10-04T15:56:32;11.30;99.90
57106;DHT22;62662;56.788;23.942;2022-10-04T16:08:16;11.30;99.90
57106;DHT22;62662;56.788;23.942;2022-10-04T16:11:22;11.30;99.90
57106;DHT22;62662;56.788;23.942;2022-10-04T16:16:59;11.20;99.90
57106;DHT22;62662;56.788;23.942;2022-10-04T16:26:01;11.00;99.90
57106;DHT22;62662;56.788;23.942;2022-10-04T16:28:48;11.00;99.90
57106;DHT22;62662;56.788;23.942;2022-10-04T16:31:47;10.90;99.90
57106;DHT22;62662;56.788;23.942;2022-10-04T16:39:59;10.90;99.90
57106;DHT22;62662;56.788;23.942;2022-10-04T16:42:48;10.90;99.90
57106;DHT22;62662;56.788;23.942;2022-10-04T16:45:36;10.80;99.90
57106;DHT22;62662;56.788;23.942;2022-10-04T16:57:25;10.50;99.90
57106;DHT22;62662;56.788;23.942;2022-10-04T17:00:33;10.50;99.90
57106;DHT22;62662;56.788;23.942;2022-10-04T17:03:23;10.40;99.90
57106;DHT22;62662;56.788;23.942;2022-10-04T17:06:14;10.40;99.90
57106;DHT22;62662;56.788;23.942;2022-10-04T17:11:26;10.40;99.90
57106;DHT22;62662;56.788;23.942;2022-10-04T17:16:54;10.50;99.90
57106;DHT22;62662;56.788;23.942;2022-10-04T17:20:00;10.50;99.90
57106;DHT22;62662;56.788;23.942;2022-10-04T17:25:46;10.40;99.90
57106;DHT22;62662;56.788;23.942;2022-10-04T17:28:29;10.30;99.90
57106;DHT22;62662;56.788;23.942;2022-10-04T17:31:35;10.30;99.90
57106;DHT22;62662;56.788;23.942;2022-10-04T17:40:19;10.00;99.90
57106;DHT22;62662;56.788;23.942;2022-10-04T17:48:45;9.80;99.90
57106;DHT22;62662;56.788;23.942;2022-10-04T17:51:50;9.70;99.90
57106;DHT22;62662;56.788;23.942;2022-10-04T17:54:47;9.60;99.90
57106;DHT22;62662;56.788;23.942;2022-10-04T17:57:47;9.40;99.90
57106;DHT22;62662;56.788;23.942;2022-10-04T18:00:21;9.40;99.90
57106;DHT22;62662;56.788;23.942;2022-10-04T18:03:19;9.20;99.90
57106;DHT22;62662;56.788;23.942;2022-10-04T18:05:57;9.20;99.90
57106;DHT22;62662;56.788;23.942;2022-10-04T18:11:24;9.10;99.90
57106;DHT22;62662;56.788;23.942;2022-10-04T18:14:01;9.00;99.90
57106;DHT22;62662;56.788;23.942;2022-10-04T18:16:50;9.00;99.90
57106;DHT22;62662;56.788;23.942;2022-10-04T18:22:17;8.80;99.90
57106;DHT22;62662;56.788;23.942;2022-10-04T18:24:59;8.90;99.90
57106;DHT22;62662;56.788;23.942;2022-10-04T18:27:30;8.80;99.90
57106;DHT22;62662;56.788;23.942;2022-10-04T18:30:14;8.80;99.90
57106;DHT22;62662;56.788;23.942;2022-10-04T18:32:54;8.80;99.90
57106;DHT22;62662;56.788;23.942;2022-10-04T18:35:30;8.70;99.90
57106;DHT22;62662;56.788;23.942;2022-10-04T18:40:51;8.60;99.90
57106;DHT22;62662;56.788;23.942;2022-10-04T18:43:34;8.70;99.90
57106;DHT22;62662;56.788;23.942;2022-10-04T18:46:20;8.70;99.90
57106;DHT22;62662;56.788;23.942;2022-10-04T19:11:23;8.80;99.90
57106;DHT22;62662;56.788;23.942;2022-10-04T19:25:14;8.80;99.90
57106;DHT22;62662;56.788;23.942;2022-10-04T19:27:50;8.70;99.90
57106;DHT22;62662;56.788;23.942;2022-10-04T19:30:32;8.70;99.90
57106;DHT22;62662;56.788;23.942;2022-10-04T19:33:12;8.70;99.90
57106;DHT22;62662;56.788;23.942;2022-10-04T19:39:05;8.70;99.90
57106;DHT22;62662;56.788;23.942;2022-10-04T19:41:54;8.70;99.90
57106;DHT22;62662;56.788;23.942;2022-10-04T19:52:49;8.80;99.90
57106;DHT22;62662;56.788;23.942;2022-10-04T19:58:34;8.90;99.90
57106;DHT22;62662;56.788;23.942;2022-10-04T20:01:11;9.00;99.90
57106;DHT22;62662;56.788;23.942;2022-10-04T20:03:39;9.10;99.90
57106;DHT22;62662;56.788;23.942;2022-10-04T20:06:07;9.00;99.90
57106;DHT22;62662;56.788;23.942;2022-10-04T20:24:47;9.60;99.90
57106;DHT22;62662;56.788;23.942;2022-10-04T20:34:57;9.70;99.90
57106;DHT22;62662;56.788;23.942;2022-10-04T20:45:46;9.70;99.90
57106;DHT22;62662;56.788;23.942;2022-10-04T20:48:21;9.70;99.90
57106;DHT22;62662;56.788;23.942;2022-10-04T20:50:48;9.70;99.90
57106;DHT22;62662;56.788;23.942;2022-10-04T20:55:51;9.50;99.90
57106;DHT22;62662;56.788;23.942;2022-10-04T20:58:34;9.40;99.90
57106;DHT22;62662;56.788;23.942;2022-10-04T21:03:46;9.20;99.90
57106;DHT22;62662;56.788;23.942;2022-10-04T21:06:13;9.20;99.90
57106;DHT22;62662;56.788;23.942;2022-10-04T21:08:41;9.10;99.90
57106;DHT22;62662;56.788;23.942;2022-10-04T21:11:17;9.10;99.90
57106;DHT22;62662;56.788;23.942;2022-10-04T21:14:31;9.10;99.90
57106;DHT22;62662;56.788;23.942;2022-10-04T21:17:00;9.10;99.90
57106;DHT22;62662;56.788;23.942;2022-10-04T21:22:02;9.00;99.90
57106;DHT22;62662;56.788;23.942;2022-10-04T21:24:39;9.00;99.90
57106;DHT22;62662;56.788;23.942;2022-10-04T21:27:09;9.00;99.90
57106;DHT22;62662;56.788;23.942;2022-10-04T21:29:37;8.90;99.90
57106;DHT22;62662;56.788;23.942;2022-10-04T21:32:05;8.80;99.90
57106;DHT22;62662;56.788;23.942;2022-10-04T21:34:32;8.80;99.90
57106;DHT22;62662;56.788;23.942;2022-10-04T21:37:19;8.80;99.90
57106;DHT22;62662;56.788;23.942;2022-10-04T21:39:46;8.80;99.90
57106;DHT22;62662;56.788;23.942;2022-10-04T21:42:13;8.80;99.90
57106;DHT22;62662;56.788;23.942;2022-10-04T21:44:41;8.80;99.90
57106;DHT22;62662;56.788;23.942;2022-10-04T21:47:08;8.70;99.90
57106;DHT22;62662;56.788;23.942;2022-10-04T21:49:36;8.80;99.90
57106;DHT22;62662;56.788;23.942;2022-10-04T21:52:03;8.70;99.90
57106;DHT22;62662;56.788;23.942;2022-10-04T21:54:30;8.70;99.90
57106;DHT22;62662;56.788;23.942;2022-10-04T21:56:57;8.70;99.90
57106;DHT22;62662;56.788;23.942;2022-10-04T21:59:24;8.70;99.90
57106;DHT22;62662;56.788;23.942;2022-10-04T22:01:51;8.70;99.90
57106;DHT22;62662;56.788;23.942;2022-10-04T22:04:19;8.60;99.90
57106;DHT22;62662;56.788;23.942;2022-10-04T22:06:46;8.60;99.90
57106;DHT22;62662;56.788;23.942;2022-10-04T22:09:14;8.60;99.90
57106;DHT22;62662;56.788;23.942;2022-10-04T22:11:41;8.60;99.90
57106;DHT22;62662;56.788;23.942;2022-10-04T22:14:08;8.60;99.90
57106;DHT22;62662;56.788;23.942;2022-10-04T22:16:35;8.60;99.90
57106;DHT22;62662;56.788;23.942;2022-10-04T22:19:03;8.60;99.90
57106;DHT22;62662;56.788;23.942;2022-10-04T22:21:30;8.50;99.90
57106;DHT22;62662;56.788;23.942;2022-10-04T22:23:58;8.50;99.90
57106;DHT22;62662;56.788;23.942;2022-10-04T22:26:27;8.50;99.90
57106;DHT22;62662;56.788;23.942;2022-10-04T22:28:55;8.40;99.90
57106;DHT22;62662;56.788;23.942;2022-10-04T22:31:27;8.40;99.90
57106;DHT22;62662;56.788;23.942;2022-10-04T22:33:55;8.40;99.90
57106;DHT22;62662;56.788;23.942;2022-10-04T22:36:36;8.30;99.90
57106;DHT22;62662;56.788;23.942;2022-10-04T22:41:41;8.20;99.90
57106;DHT22;62662;56.788;23.942;2022-10-04T22:46:43;8.10;99.90
57106;DHT22;62662;56.788;23.942;2022-10-04T22:49:13;8.10;99.90
57106;DHT22;62662;56.788;23.942;2022-10-04T22:51:43;8.20;99.90
57106;DHT22;62662;56.788;23.942;2022-10-04T22:54:25;8.10;99.90
57106;DHT22;62662;56.788;23.942;2022-10-04T22:56:53;8.20;99.90
57106;DHT22;62662;56.788;23.942;2022-10-04T22:59:20;8.20;99.90
57106;DHT22;62662;56.788;23.942;2022-10-04T23:01:48;8.20;99.90
57106;DHT22;62662;56.788;23.942;2022-10-04T23:04:24;8.20;99.90
57106;DHT22;62662;56.788;23.942;2022-10-04T23:06:52;8.20;99.90
57106;DHT22;62662;56.788;23.942;2022-10-04T23:09:19;8.20;99.90
57106;DHT22;62662;56.788;23.942;2022-10-04T23:11:46;8.30;99.90
57106;DHT22;62662;56.788;23.942;2022-10-04T23:14:13;8.30;99.90
57106;DHT22;62662;56.788;23.942;2022-10-04T23:16:40;8.20;99.90
57106;DHT22;62662;56.788;23.942;2022-10-04T23:19:11;8.30;99.90
57106;DHT22;62662;56.788;23.942;2022-10-04T23:21:44;8.30;99.90
57106;DHT22;62662;56.788;23.942;2022-10-04T23:24:17;8.20;99.90
57106;DHT22;62662;56.788;23.942;2022-10-04T23:26:46;8.30;99.90
57106;DHT22;62662;56.788;23.942;2022-10-04T23:31:45;8.30;99.90
57106;DHT22;62662;56.788;23.942;2022-10-04T23:34:20;8.20;99.90
57106;DHT22;62662;56.788;23.942;2022-10-04T23:36:50;8.30;99.90
57106;DHT22;62662;56.788;23.942;2022-10-04T23:39:29;8.30;99.90
57106;DHT22;62662;56.788;23.942;2022-10-04T23:41:58;8.20;99.90
57106;DHT22;62662;56.788;23.942;2022-10-04T23:44:36;8.20;99.90
57106;DHT22;62662;56.788;23.942;2022-10-04T23:47:11;8.30;99.90
57106;DHT22;62662;56.788;23.942;2022-10-04T23:49:39;8.30;99.90
57106;DHT22;62662;56.788;23.942;2022-10-04T23:52:34;8.30;99.90
57106;DHT22;62662;56.788;23.942;2022-10-04T23:55:02;8.30;99.90
57106;DHT22;62662;56.788;23.942;2022-10-04T23:57:36;8.30;99.90
